Pagina principale
METAR-TAF:

METAR-TAF

Aeroporti :

Contea di Franklin, Vermont, Stati Uniti

latitudine: 44-56-25N, longitudine: 073-05-51W, altezza: 69 m

Osservazione

Il bollettino è stato emesso 28 minuti fa, alle 07:55 UTC
Vento 4 kt da nord
Temperature 20°C
Umidità 78%
Pressione 1014 hPa
Visibilità: 16.1 km
Cielo coperto ad un'altezza di 4200 ft

METAR: KFSO 160755Z AUTO 36004KT 10SM OVC042 20/16 A2995 RMK AO2 T01970158

Ora: 04:23 (08:23 UTC)


TAF: mancante

Osservazioni e previsioni meteorologiche di più di 4000 aeroporti (messaggi METAR e TAF).

Le stazioni disponibili sono rappresentate dai dischi gialli e rossi sulla carta.

Puntare il mouse per vedere il nome della stazione.

Clicca sopra per visualizzare le osservazioni e previsioni meteorologiche.

Per cambiare la mappa : fare clic sui pulsanti verdi con una croce nera per ingrandire, il pulsante verde con un trattino per diminuire, o sulla freccia verde per le mappe adiacenti.


METAR-TAF: